sensor_id;sensor_type;location;lat;lon;timestamp;temperature;humidity
10472;DHT22;5283;48.876;8.962;2023-05-14T00:00:03;9.20;99.90
10472;DHT22;5283;48.876;8.962;2023-05-14T00:02:29;9.20;99.90
10472;DHT22;5283;48.876;8.962;2023-05-14T00:04:56;9.10;99.90
10472;DHT22;5283;48.876;8.962;2023-05-14T00:07:23;9.00;99.90
10472;DHT22;5283;48.876;8.962;2023-05-14T00:09:56;8.90;99.90
10472;DHT22;5283;48.876;8.962;2023-05-14T00:12:23;8.80;99.90
10472;DHT22;5283;48.876;8.962;2023-05-14T00:14:52;8.70;99.90
10472;DHT22;5283;48.876;8.962;2023-05-14T00:17:19;8.60;99.90
10472;DHT22;5283;48.876;8.962;2023-05-14T00:19:45;8.50;99.90
10472;DHT22;5283;48.876;8.962;2023-05-14T00:22:12;8.50;99.90
10472;DHT22;5283;48.876;8.962;2023-05-14T00:24:39;8.50;99.90
10472;DHT22;5283;48.876;8.962;2023-05-14T00:27:06;8.60;99.90
10472;DHT22;5283;48.876;8.962;2023-05-14T00:29:32;8.60;99.90
10472;DHT22;5283;48.876;8.962;2023-05-14T00:31:59;8.60;99.90
10472;DHT22;5283;48.876;8.962;2023-05-14T00:38:14;8.60;99.90
10472;DHT22;5283;48.876;8.962;2023-05-14T00:40:45;8.50;99.90
10472;DHT22;5283;48.876;8.962;2023-05-14T00:43:20;8.50;99.90
10472;DHT22;5283;48.876;8.962;2023-05-14T00:45:52;8.50;99.90
10472;DHT22;5283;48.876;8.962;2023-05-14T00:48:20;8.40;99.90
10472;DHT22;5283;48.876;8.962;2023-05-14T00:50:48;8.30;99.90
10472;DHT22;5283;48.876;8.962;2023-05-14T00:53:15;8.30;99.90
10472;DHT22;5283;48.876;8.962;2023-05-14T00:55:42;8.20;99.90
10472;DHT22;5283;48.876;8.962;2023-05-14T00:58:11;8.20;99.90
10472;DHT22;5283;48.876;8.962;2023-05-14T01:00:39;8.00;99.90
10472;DHT22;5283;48.876;8.962;2023-05-14T01:03:06;7.90;99.90
10472;DHT22;5283;48.876;8.962;2023-05-14T01:05:52;7.90;99.90
10472;DHT22;5283;48.876;8.962;2023-05-14T01:10:51;7.70;99.90
10472;DHT22;5283;48.876;8.962;2023-05-14T01:13:32;7.70;99.90
10472;DHT22;5283;48.876;8.962;2023-05-14T01:16:25;7.60;99.90
10472;DHT22;5283;48.876;8.962;2023-05-14T01:18:53;7.50;99.90
10472;DHT22;5283;48.876;8.962;2023-05-14T01:21:33;7.40;99.90
10472;DHT22;5283;48.876;8.962;2023-05-14T01:24:01;7.30;99.90
10472;DHT22;5283;48.876;8.962;2023-05-14T01:26:28;7.30;99.90
10472;DHT22;5283;48.876;8.962;2023-05-14T01:29:08;7.30;99.90
10472;DHT22;5283;48.876;8.962;2023-05-14T01:31:38;7.30;99.90
10472;DHT22;5283;48.876;8.962;2023-05-14T01:34:06;7.20;99.90
10472;DHT22;5283;48.876;8.962;2023-05-14T01:36:34;7.20;99.90
10472;DHT22;5283;48.876;8.962;2023-05-14T01:39:01;7.10;99.90
10472;DHT22;5283;48.876;8.962;2023-05-14T01:41:30;7.00;99.90
10472;DHT22;5283;48.876;8.962;2023-05-14T01:43:57;6.90;99.90
10472;DHT22;5283;48.876;8.962;2023-05-14T01:46:24;6.90;99.90
10472;DHT22;5283;48.876;8.962;2023-05-14T01:48:50;6.80;99.90
10472;DHT22;5283;48.876;8.962;2023-05-14T01:51:17;6.70;99.90
10472;DHT22;5283;48.876;8.962;2023-05-14T01:53:44;6.70;99.90
10472;DHT22;5283;48.876;8.962;2023-05-14T01:56:11;6.60;99.90
10472;DHT22;5283;48.876;8.962;2023-05-14T01:58:37;6.50;99.90
10472;DHT22;5283;48.876;8.962;2023-05-14T02:01:04;6.50;99.90
10472;DHT22;5283;48.876;8.962;2023-05-14T02:03:30;6.50;99.90
10472;DHT22;5283;48.876;8.962;2023-05-14T02:05:57;6.50;99.90
10472;DHT22;5283;48.876;8.962;2023-05-14T02:08:24;6.50;99.90
10472;DHT22;5283;48.876;8.962;2023-05-14T02:10:51;6.50;99.90
10472;DHT22;5283;48.876;8.962;2023-05-14T02:13:18;6.70;99.90
10472;DHT22;5283;48.876;8.962;2023-05-14T02:15:45;6.80;99.90
10472;DHT22;5283;48.876;8.962;2023-05-14T02:18:11;6.80;99.90
10472;DHT22;5283;48.876;8.962;2023-05-14T02:20:38;6.60;99.90
10472;DHT22;5283;48.876;8.962;2023-05-14T02:23:04;6.50;99.90
10472;DHT22;5283;48.876;8.962;2023-05-14T02:25:31;6.40;99.90
10472;DHT22;5283;48.876;8.962;2023-05-14T02:27:58;6.30;99.90
10472;DHT22;5283;48.876;8.962;2023-05-14T02:30:25;6.20;99.90
10472;DHT22;5283;48.876;8.962;2023-05-14T02:32:51;6.10;99.90
10472;DHT22;5283;48.876;8.962;2023-05-14T02:35:18;6.10;99.90
10472;DHT22;5283;48.876;8.962;2023-05-14T02:37:44;6.00;99.90
10472;DHT22;5283;48.876;8.962;2023-05-14T02:40:11;6.00;99.90
10472;DHT22;5283;48.876;8.962;2023-05-14T02:42:38;6.00;99.90
10472;DHT22;5283;48.876;8.962;2023-05-14T02:45:05;5.90;99.90
10472;DHT22;5283;48.876;8.962;2023-05-14T02:47:32;5.80;99.90
10472;DHT22;5283;48.876;8.962;2023-05-14T02:49:59;5.80;99.90
10472;DHT22;5283;48.876;8.962;2023-05-14T02:52:26;5.70;99.90
10472;DHT22;5283;48.876;8.962;2023-05-14T02:54:52;5.70;99.90
10472;DHT22;5283;48.876;8.962;2023-05-14T02:57:19;5.80;99.90
10472;DHT22;5283;48.876;8.962;2023-05-14T02:59:46;5.80;99.90
10472;DHT22;5283;48.876;8.962;2023-05-14T03:02:13;5.90;99.90
10472;DHT22;5283;48.876;8.962;2023-05-14T03:04:40;6.00;99.90
10472;DHT22;5283;48.876;8.962;2023-05-14T03:07:06;6.00;99.90
10472;DHT22;5283;48.876;8.962;2023-05-14T03:09:33;6.10;99.90
10472;DHT22;5283;48.876;8.962;2023-05-14T03:12:00;6.30;99.90
10472;DHT22;5283;48.876;8.962;2023-05-14T03:14:27;6.40;99.90
10472;DHT22;5283;48.876;8.962;2023-05-14T03:16:53;6.50;99.90
10472;DHT22;5283;48.876;8.962;2023-05-14T03:19:20;6.50;99.90
10472;DHT22;5283;48.876;8.962;2023-05-14T03:21:47;6.60;99.90
10472;DHT22;5283;48.876;8.962;2023-05-14T03:24:15;6.60;99.90
10472;DHT22;5283;48.876;8.962;2023-05-14T03:26:42;6.60;99.90
10472;DHT22;5283;48.876;8.962;2023-05-14T03:29:08;6.60;99.90
10472;DHT22;5283;48.876;8.962;2023-05-14T03:31:36;6.70;99.90
10472;DHT22;5283;48.876;8.962;2023-05-14T03:34:03;6.70;99.90
10472;DHT22;5283;48.876;8.962;2023-05-14T03:36:29;6.70;99.90
10472;DHT22;5283;48.876;8.962;2023-05-14T03:38:57;6.60;99.90
10472;DHT22;5283;48.876;8.962;2023-05-14T03:41:24;6.70;99.90
10472;DHT22;5283;48.876;8.962;2023-05-14T03:43:51;6.80;99.90
10472;DHT22;5283;48.876;8.962;2023-05-14T03:46:18;6.80;99.90
10472;DHT22;5283;48.876;8.962;2023-05-14T03:48:45;6.80;99.90
10472;DHT22;5283;48.876;8.962;2023-05-14T03:51:11;6.80;99.90
10472;DHT22;5283;48.876;8.962;2023-05-14T03:53:38;6.90;99.90
10472;DHT22;5283;48.876;8.962;2023-05-14T03:56:05;6.90;99.90
10472;DHT22;5283;48.876;8.962;2023-05-14T03:58:32;6.90;99.90
10472;DHT22;5283;48.876;8.962;2023-05-14T04:00:58;7.00;99.90
10472;DHT22;5283;48.876;8.962;2023-05-14T04:03:25;7.10;99.90
10472;DHT22;5283;48.876;8.962;2023-05-14T04:05:52;7.20;99.90
10472;DHT22;5283;48.876;8.962;2023-05-14T04:08:19;7.20;99.90
10472;DHT22;5283;48.876;8.962;2023-05-14T04:10:45;7.40;99.90
10472;DHT22;5283;48.876;8.962;2023-05-14T04:13:12;7.40;99.90
10472;DHT22;5283;48.876;8.962;2023-05-14T04:15:39;7.50;99.90
10472;DHT22;5283;48.876;8.962;2023-05-14T04:18:05;7.60;99.90
10472;DHT22;5283;48.876;8.962;2023-05-14T04:20:32;7.70;99.90
10472;DHT22;5283;48.876;8.962;2023-05-14T04:22:59;7.80;99.90
10472;DHT22;5283;48.876;8.962;2023-05-14T04:25:26;7.80;99.90
10472;DHT22;5283;48.876;8.962;2023-05-14T04:27:53;7.90;99.90
10472;DHT22;5283;48.876;8.962;2023-05-14T04:30:20;7.90;99.90
10472;DHT22;5283;48.876;8.962;2023-05-14T04:32:46;7.90;99.90
10472;DHT22;5283;48.876;8.962;2023-05-14T04:35:13;8.00;99.90
10472;DHT22;5283;48.876;8.962;2023-05-14T04:37:40;8.00;99.90
10472;DHT22;5283;48.876;8.962;2023-05-14T04:40:08;8.10;99.90
10472;DHT22;5283;48.876;8.962;2023-05-14T04:42:36;8.20;99.90
10472;DHT22;5283;48.876;8.962;2023-05-14T04:45:04;8.20;99.90
10472;DHT22;5283;48.876;8.962;2023-05-14T04:47:31;8.30;99.90
10472;DHT22;5283;48.876;8.962;2023-05-14T04:49:58;8.30;99.90
10472;DHT22;5283;48.876;8.962;2023-05-14T04:52:25;8.30;99.90
10472;DHT22;5283;48.876;8.962;2023-05-14T04:54:51;8.40;99.90
10472;DHT22;5283;48.876;8.962;2023-05-14T04:57:18;8.50;99.90
10472;DHT22;5283;48.876;8.962;2023-05-14T04:59:45;8.60;99.90
10472;DHT22;5283;48.876;8.962;2023-05-14T05:02:12;8.70;99.90
10472;DHT22;5283;48.876;8.962;2023-05-14T05:04:38;8.80;99.90
10472;DHT22;5283;48.876;8.962;2023-05-14T05:07:05;8.80;99.90
10472;DHT22;5283;48.876;8.962;2023-05-14T05:09:32;8.80;99.90
10472;DHT22;5283;48.876;8.962;2023-05-14T05:11:59;8.80;99.90
10472;DHT22;5283;48.876;8.962;2023-05-14T05:14:27;8.90;99.90
10472;DHT22;5283;48.876;8.962;2023-05-14T05:16:53;9.10;99.90
10472;DHT22;5283;48.876;8.962;2023-05-14T05:19:20;9.30;99.90
10472;DHT22;5283;48.876;8.962;2023-05-14T05:21:50;9.30;99.90
10472;DHT22;5283;48.876;8.962;2023-05-14T05:24:16;9.40;99.90
10472;DHT22;5283;48.876;8.962;2023-05-14T05:26:43;9.50;99.90
10472;DHT22;5283;48.876;8.962;2023-05-14T05:29:10;9.70;99.90
10472;DHT22;5283;48.876;8.962;2023-05-14T05:31:37;9.60;99.90
10472;DHT22;5283;48.876;8.962;2023-05-14T05:34:03;9.60;99.90
10472;DHT22;5283;48.876;8.962;2023-05-14T05:36:30;9.90;99.90
10472;DHT22;5283;48.876;8.962;2023-05-14T05:38:57;10.10;99.90
10472;DHT22;5283;48.876;8.962;2023-05-14T05:41:24;10.30;99.90
10472;DHT22;5283;48.876;8.962;2023-05-14T05:43:51;10.40;99.90
10472;DHT22;5283;48.876;8.962;2023-05-14T05:46:18;10.50;99.90
10472;DHT22;5283;48.876;8.962;2023-05-14T05:48:45;10.60;99.90
10472;DHT22;5283;48.876;8.962;2023-05-14T05:51:12;10.80;99.90
10472;DHT22;5283;48.876;8.962;2023-05-14T05:53:38;11.00;99.90
10472;DHT22;5283;48.876;8.962;2023-05-14T05:56:05;11.20;99.90
10472;DHT22;5283;48.876;8.962;2023-05-14T05:58:32;11.40;99.90
10472;DHT22;5283;48.876;8.962;2023-05-14T06:00:59;11.60;99.90
10472;DHT22;5283;48.876;8.962;2023-05-14T06:03:25;11.80;99.90
10472;DHT22;5283;48.876;8.962;2023-05-14T06:05:52;12.00;99.90
10472;DHT22;5283;48.876;8.962;2023-05-14T06:08:19;11.70;99.90
10472;DHT22;5283;48.876;8.962;2023-05-14T06:10:46;11.80;99.90
10472;DHT22;5283;48.876;8.962;2023-05-14T06:13:13;11.90;99.90
10472;DHT22;5283;48.876;8.962;2023-05-14T06:15:39;11.60;99.90
10472;DHT22;5283;48.876;8.962;2023-05-14T06:18:06;11.80;99.90
10472;DHT22;5283;48.876;8.962;2023-05-14T06:20:33;11.80;99.90
10472;DHT22;5283;48.876;8.962;2023-05-14T06:23:00;12.00;99.90
10472;DHT22;5283;48.876;8.962;2023-05-14T06:25:27;11.90;99.90
10472;DHT22;5283;48.876;8.962;2023-05-14T06:27:53;12.10;99.90
10472;DHT22;5283;48.876;8.962;2023-05-14T06:30:20;12.30;99.90
10472;DHT22;5283;48.876;8.962;2023-05-14T06:32:47;12.20;99.90
10472;DHT22;5283;48.876;8.962;2023-05-14T06:35:13;12.00;99.90
10472;DHT22;5283;48.876;8.962;2023-05-14T06:37:40;11.90;99.90
10472;DHT22;5283;48.876;8.962;2023-05-14T06:40:07;11.80;99.90
10472;DHT22;5283;48.876;8.962;2023-05-14T06:42:34;11.90;99.90
10472;DHT22;5283;48.876;8.962;2023-05-14T06:45:01;12.10;99.90
10472;DHT22;5283;48.876;8.962;2023-05-14T06:47:27;12.50;99.90
10472;DHT22;5283;48.876;8.962;2023-05-14T06:49:54;12.90;99.90
10472;DHT22;5283;48.876;8.962;2023-05-14T06:52:24;13.20;99.90
10472;DHT22;5283;48.876;8.962;2023-05-14T06:54:51;13.60;99.90
10472;DHT22;5283;48.876;8.962;2023-05-14T06:57:18;13.60;99.90
10472;DHT22;5283;48.876;8.962;2023-05-14T06:59:44;14.00;99.90
10472;DHT22;5283;48.876;8.962;2023-05-14T07:02:11;14.70;99.90
10472;DHT22;5283;48.876;8.962;2023-05-14T07:04:38;15.50;99.90
10472;DHT22;5283;48.876;8.962;2023-05-14T07:07:04;16.10;99.90
10472;DHT22;5283;48.876;8.962;2023-05-14T07:09:31;16.50;99.90
10472;DHT22;5283;48.876;8.962;2023-05-14T07:11:58;16.40;99.90
10472;DHT22;5283;48.876;8.962;2023-05-14T07:14:25;16.40;99.90
10472;DHT22;5283;48.876;8.962;2023-05-14T07:16:51;16.90;99.90
10472;DHT22;5283;48.876;8.962;2023-05-14T07:19:18;17.60;99.90
10472;DHT22;5283;48.876;8.962;2023-05-14T07:21:45;18.10;99.90
10472;DHT22;5283;48.876;8.962;2023-05-14T07:24:11;18.40;99.90
10472;DHT22;5283;48.876;8.962;2023-05-14T07:26:38;17.90;99.90
10472;DHT22;5283;48.876;8.962;2023-05-14T07:29:05;17.00;99.90
10472;DHT22;5283;48.876;8.962;2023-05-14T07:31:31;15.80;99.90
10472;DHT22;5283;48.876;8.962;2023-05-14T07:33:58;15.20;99.90
10472;DHT22;5283;48.876;8.962;2023-05-14T07:36:25;15.40;99.90
10472;DHT22;5283;48.876;8.962;2023-05-14T07:38:52;15.30;99.90
10472;DHT22;5283;48.876;8.962;2023-05-14T07:41:18;15.40;99.90
10472;DHT22;5283;48.876;8.962;2023-05-14T07:43:45;15.50;99.90
10472;DHT22;5283;48.876;8.962;2023-05-14T07:46:13;15.70;99.90
10472;DHT22;5283;48.876;8.962;2023-05-14T07:48:40;15.60;99.90
10472;DHT22;5283;48.876;8.962;2023-05-14T07:51:06;15.60;99.90
10472;DHT22;5283;48.876;8.962;2023-05-14T07:53:33;15.40;99.90
10472;DHT22;5283;48.876;8.962;2023-05-14T07:56:00;15.20;99.90
10472;DHT22;5283;48.876;8.962;2023-05-14T07:58:27;15.60;99.90
10472;DHT22;5283;48.876;8.962;2023-05-14T08:00:54;15.70;99.90
10472;DHT22;5283;48.876;8.962;2023-05-14T08:03:22;15.60;99.90
10472;DHT22;5283;48.876;8.962;2023-05-14T08:05:49;15.50;99.90
10472;DHT22;5283;48.876;8.962;2023-05-14T08:08:17;15.80;99.90
10472;DHT22;5283;48.876;8.962;2023-05-14T08:10:44;16.30;99.90
10472;DHT22;5283;48.876;8.962;2023-05-14T08:13:11;16.50;99.90
10472;DHT22;5283;48.876;8.962;2023-05-14T08:15:37;16.90;99.90
10472;DHT22;5283;48.876;8.962;2023-05-14T08:18:04;16.80;99.90
10472;DHT22;5283;48.876;8.962;2023-05-14T08:20:31;17.10;99.90
10472;DHT22;5283;48.876;8.962;2023-05-14T08:22:58;17.20;99.90
10472;DHT22;5283;48.876;8.962;2023-05-14T08:25:24;17.00;99.90
10472;DHT22;5283;48.876;8.962;2023-05-14T08:27:51;16.90;99.90
10472;DHT22;5283;48.876;8.962;2023-05-14T08:30:19;17.00;99.90
10472;DHT22;5283;48.876;8.962;2023-05-14T08:32:47;16.90;99.90
10472;DHT22;5283;48.876;8.962;2023-05-14T08:35:14;17.30;99.90
10472;DHT22;5283;48.876;8.962;2023-05-14T08:37:41;17.30;99.90
10472;DHT22;5283;48.876;8.962;2023-05-14T08:40:08;17.70;99.90
10472;DHT22;5283;48.876;8.962;2023-05-14T08:42:37;17.20;99.90
10472;DHT22;5283;48.876;8.962;2023-05-14T08:45:12;17.40;99.90
10472;DHT22;5283;48.876;8.962;2023-05-14T08:47:40;17.50;99.90
10472;DHT22;5283;48.876;8.962;2023-05-14T08:50:08;17.50;99.90
10472;DHT22;5283;48.876;8.962;2023-05-14T08:52:35;17.40;99.90
10472;DHT22;5283;48.876;8.962;2023-05-14T08:55:04;16.90;99.90
10472;DHT22;5283;48.876;8.962;2023-05-14T08:57:32;16.40;99.90
10472;DHT22;5283;48.876;8.962;2023-05-14T08:59:59;16.70;99.90
10472;DHT22;5283;48.876;8.962;2023-05-14T09:02:30;17.10;99.90
10472;DHT22;5283;48.876;8.962;2023-05-14T09:05:00;17.30;99.90
10472;DHT22;5283;48.876;8.962;2023-05-14T09:07:27;17.60;99.90
10472;DHT22;5283;48.876;8.962;2023-05-14T09:09:54;17.80;99.90
10472;DHT22;5283;48.876;8.962;2023-05-14T09:12:21;18.00;99.90
10472;DHT22;5283;48.876;8.962;2023-05-14T09:14:48;18.40;99.90
10472;DHT22;5283;48.876;8.962;2023-05-14T09:17:17;18.60;99.90
10472;DHT22;5283;48.876;8.962;2023-05-14T09:19:45;18.90;99.90
10472;DHT22;5283;48.876;8.962;2023-05-14T09:22:19;19.20;99.90
10472;DHT22;5283;48.876;8.962;2023-05-14T09:25:07;19.40;99.90
10472;DHT22;5283;48.876;8.962;2023-05-14T09:27:35;19.40;99.90
10472;DHT22;5283;48.876;8.962;2023-05-14T09:30:09;19.20;99.90
10472;DHT22;5283;48.876;8.962;2023-05-14T09:32:38;18.90;99.90
10472;DHT22;5283;48.876;8.962;2023-05-14T09:37:40;18.30;99.90
10472;DHT22;5283;48.876;8.962;2023-05-14T09:40:08;18.40;99.90
10472;DHT22;5283;48.876;8.962;2023-05-14T09:42:36;18.50;99.90
10472;DHT22;5283;48.876;8.962;2023-05-14T09:45:03;18.80;99.90
10472;DHT22;5283;48.876;8.962;2023-05-14T09:47:32;19.00;99.90
10472;DHT22;5283;48.876;8.962;2023-05-14T09:49:59;19.20;99.90
10472;DHT22;5283;48.876;8.962;2023-05-14T09:52:26;19.20;99.90
10472;DHT22;5283;48.876;8.962;2023-05-14T09:54:55;19.60;99.90
10472;DHT22;5283;48.876;8.962;2023-05-14T09:57:22;20.00;99.90
10472;DHT22;5283;48.876;8.962;2023-05-14T09:59:49;20.30;99.90
10472;DHT22;5283;48.876;8.962;2023-05-14T10:02:24;20.70;99.90
10472;DHT22;5283;48.876;8.962;2023-05-14T10:04:53;20.90;99.90
10472;DHT22;5283;48.876;8.962;2023-05-14T10:07:23;21.00;99.90
10472;DHT22;5283;48.876;8.962;2023-05-14T10:09:58;21.00;99.90
10472;DHT22;5283;48.876;8.962;2023-05-14T10:12:34;21.10;99.90
10472;DHT22;5283;48.876;8.962;2023-05-14T10:15:32;20.80;99.90
10472;DHT22;5283;48.876;8.962;2023-05-14T10:18:05;20.50;99.90
10472;DHT22;5283;48.876;8.962;2023-05-14T10:20:32;20.30;99.90
10472;DHT22;5283;48.876;8.962;2023-05-14T10:23:00;20.10;99.90
10472;DHT22;5283;48.876;8.962;2023-05-14T10:25:27;20.00;99.90
10472;DHT22;5283;48.876;8.962;2023-05-14T10:27:54;20.10;99.90
10472;DHT22;5283;48.876;8.962;2023-05-14T10:34:30;20.20;99.90
10472;DHT22;5283;48.876;8.962;2023-05-14T10:37:01;20.60;99.90
10472;DHT22;5283;48.876;8.962;2023-05-14T10:42:09;20.40;99.90
10472;DHT22;5283;48.876;8.962;2023-05-14T10:44:41;20.50;99.90
10472;DHT22;5283;48.876;8.962;2023-05-14T10:47:10;20.50;99.90
10472;DHT22;5283;48.876;8.962;2023-05-14T10:49:37;20.50;99.90
10472;DHT22;5283;48.876;8.962;2023-05-14T10:52:08;20.10;99.90
10472;DHT22;5283;48.876;8.962;2023-05-14T10:54:35;19.70;99.90
10472;DHT22;5283;48.876;8.962;2023-05-14T10:57:02;19.50;99.90
10472;DHT22;5283;48.876;8.962;2023-05-14T10:59:29;19.30;99.90
10472;DHT22;5283;48.876;8.962;2023-05-14T11:01:58;19.10;99.90
10472;DHT22;5283;48.876;8.962;2023-05-14T11:04:26;19.00;99.90
10472;DHT22;5283;48.876;8.962;2023-05-14T11:06:54;19.00;99.90
10472;DHT22;5283;48.876;8.962;2023-05-14T11:09:23;19.10;99.90
10472;DHT22;5283;48.876;8.962;2023-05-14T11:11:50;18.90;99.90
10472;DHT22;5283;48.876;8.962;2023-05-14T11:14:18;18.90;99.90
10472;DHT22;5283;48.876;8.962;2023-05-14T11:16:46;18.80;99.90
10472;DHT22;5283;48.876;8.962;2023-05-14T11:19:13;18.70;99.90
10472;DHT22;5283;48.876;8.962;2023-05-14T11:21:40;18.80;99.90
10472;DHT22;5283;48.876;8.962;2023-05-14T11:24:06;19.10;99.90
10472;DHT22;5283;48.876;8.962;2023-05-14T11:26:33;19.60;99.90
10472;DHT22;5283;48.876;8.962;2023-05-14T11:29:01;19.40;99.90
10472;DHT22;5283;48.876;8.962;2023-05-14T11:31:27;19.10;99.90
10472;DHT22;5283;48.876;8.962;2023-05-14T11:33:54;18.90;99.90
10472;DHT22;5283;48.876;8.962;2023-05-14T11:36:21;19.10;99.90
10472;DHT22;5283;48.876;8.962;2023-05-14T11:38:48;19.10;99.90
10472;DHT22;5283;48.876;8.962;2023-05-14T11:41:16;19.00;99.90
10472;DHT22;5283;48.876;8.962;2023-05-14T11:43:44;18.90;99.90
10472;DHT22;5283;48.876;8.962;2023-05-14T11:46:16;19.40;99.90
10472;DHT22;5283;48.876;8.962;2023-05-14T11:48:44;19.60;99.90
10472;DHT22;5283;48.876;8.962;2023-05-14T11:51:11;19.80;99.90
10472;DHT22;5283;48.876;8.962;2023-05-14T11:53:38;19.90;99.90
10472;DHT22;5283;48.876;8.962;2023-05-14T11:56:04;20.00;99.90
10472;DHT22;5283;48.876;8.962;2023-05-14T11:58:33;19.80;99.90
10472;DHT22;5283;48.876;8.962;2023-05-14T12:01:00;19.80;99.90
10472;DHT22;5283;48.876;8.962;2023-05-14T12:03:26;19.20;99.90
10472;DHT22;5283;48.876;8.962;2023-05-14T12:05:59;18.90;99.90
10472;DHT22;5283;48.876;8.962;2023-05-14T12:08:28;18.60;99.90
10472;DHT22;5283;48.876;8.962;2023-05-14T12:10:57;18.50;99.90
10472;DHT22;5283;48.876;8.962;2023-05-14T12:13:33;18.30;99.90
10472;DHT22;5283;48.876;8.962;2023-05-14T12:16:00;18.50;99.90
10472;DHT22;5283;48.876;8.962;2023-05-14T12:18:29;18.70;99.90
10472;DHT22;5283;48.876;8.962;2023-05-14T12:21:04;18.80;99.90
10472;DHT22;5283;48.876;8.962;2023-05-14T12:23:32;18.90;99.90
10472;DHT22;5283;48.876;8.962;2023-05-14T12:26:02;18.80;99.90
10472;DHT22;5283;48.876;8.962;2023-05-14T12:28:31;18.70;99.90
10472;DHT22;5283;48.876;8.962;2023-05-14T12:30:59;18.50;99.90
10472;DHT22;5283;48.876;8.962;2023-05-14T12:33:26;18.10;99.90
10472;DHT22;5283;48.876;8.962;2023-05-14T12:35:53;18.00;99.90
10472;DHT22;5283;48.876;8.962;2023-05-14T12:38:23;17.90;99.90
10472;DHT22;5283;48.876;8.962;2023-05-14T12:40:49;17.70;99.90
10472;DHT22;5283;48.876;8.962;2023-05-14T12:43:16;17.50;99.90
10472;DHT22;5283;48.876;8.962;2023-05-14T12:45:43;17.40;99.90
10472;DHT22;5283;48.876;8.962;2023-05-14T12:48:10;17.60;99.90
10472;DHT22;5283;48.876;8.962;2023-05-14T12:50:38;18.10;99.90
10472;DHT22;5283;48.876;8.962;2023-05-14T12:53:05;18.50;99.90
10472;DHT22;5283;48.876;8.962;2023-05-14T12:55:32;18.60;99.90
10472;DHT22;5283;48.876;8.962;2023-05-14T12:57:59;18.60;99.90
10472;DHT22;5283;48.876;8.962;2023-05-14T13:00:26;18.40;99.90
10472;DHT22;5283;48.876;8.962;2023-05-14T13:02:53;18.30;99.90
10472;DHT22;5283;48.876;8.962;2023-05-14T13:05:20;18.30;99.90
10472;DHT22;5283;48.876;8.962;2023-05-14T13:07:47;18.20;99.90
10472;DHT22;5283;48.876;8.962;2023-05-14T13:10:13;18.20;99.90
10472;DHT22;5283;48.876;8.962;2023-05-14T13:12:40;18.60;99.90
10472;DHT22;5283;48.876;8.962;2023-05-14T13:15:07;18.50;99.90
10472;DHT22;5283;48.876;8.962;2023-05-14T13:17:35;18.00;99.90
10472;DHT22;5283;48.876;8.962;2023-05-14T13:20:02;17.90;99.90
10472;DHT22;5283;48.876;8.962;2023-05-14T13:22:30;18.00;99.90
10472;DHT22;5283;48.876;8.962;2023-05-14T13:24:56;18.10;99.90
10472;DHT22;5283;48.876;8.962;2023-05-14T13:27:24;18.10;99.90
10472;DHT22;5283;48.876;8.962;2023-05-14T13:29:51;18.30;99.90
10472;DHT22;5283;48.876;8.962;2023-05-14T13:32:18;18.40;99.90
10472;DHT22;5283;48.876;8.962;2023-05-14T13:34:44;18.50;99.90
10472;DHT22;5283;48.876;8.962;2023-05-14T13:37:11;18.70;99.90
10472;DHT22;5283;48.876;8.962;2023-05-14T13:39:38;19.20;99.90
10472;DHT22;5283;48.876;8.962;2023-05-14T13:42:06;19.20;99.90
10472;DHT22;5283;48.876;8.962;2023-05-14T13:44:33;19.30;99.90
10472;DHT22;5283;48.876;8.962;2023-05-14T13:47:01;19.40;99.90
10472;DHT22;5283;48.876;8.962;2023-05-14T13:49:28;19.40;99.90
10472;DHT22;5283;48.876;8.962;2023-05-14T13:51:55;19.60;99.90
10472;DHT22;5283;48.876;8.962;2023-05-14T13:54:21;19.70;99.90
10472;DHT22;5283;48.876;8.962;2023-05-14T13:56:49;19.80;99.90
10472;DHT22;5283;48.876;8.962;2023-05-14T13:59:17;19.60;99.90
10472;DHT22;5283;48.876;8.962;2023-05-14T14:01:43;19.10;99.90
10472;DHT22;5283;48.876;8.962;2023-05-14T14:04:10;18.50;99.90
10472;DHT22;5283;48.876;8.962;2023-05-14T14:06:37;18.00;99.90
10472;DHT22;5283;48.876;8.962;2023-05-14T14:09:03;17.90;99.90
10472;DHT22;5283;48.876;8.962;2023-05-14T14:11:30;17.80;99.90
10472;DHT22;5283;48.876;8.962;2023-05-14T14:13:57;17.90;99.90
10472;DHT22;5283;48.876;8.962;2023-05-14T14:16:23;18.00;99.90
10472;DHT22;5283;48.876;8.962;2023-05-14T14:18:50;17.90;99.90
10472;DHT22;5283;48.876;8.962;2023-05-14T14:21:17;17.80;99.90
10472;DHT22;5283;48.876;8.962;2023-05-14T14:23:46;17.80;99.90
10472;DHT22;5283;48.876;8.962;2023-05-14T14:26:13;17.80;99.90
10472;DHT22;5283;48.876;8.962;2023-05-14T14:28:39;17.80;99.90
10472;DHT22;5283;48.876;8.962;2023-05-14T14:31:06;17.90;99.90
10472;DHT22;5283;48.876;8.962;2023-05-14T14:33:33;18.00;99.90
10472;DHT22;5283;48.876;8.962;2023-05-14T14:35:59;18.00;99.90
10472;DHT22;5283;48.876;8.962;2023-05-14T14:38:26;17.80;99.90
10472;DHT22;5283;48.876;8.962;2023-05-14T14:40:53;17.90;99.90
10472;DHT22;5283;48.876;8.962;2023-05-14T14:43:20;18.00;99.90
10472;DHT22;5283;48.876;8.962;2023-05-14T14:45:46;18.20;99.90
10472;DHT22;5283;48.876;8.962;2023-05-14T14:48:33;18.40;99.90
10472;DHT22;5283;48.876;8.962;2023-05-14T14:51:04;18.90;99.90
10472;DHT22;5283;48.876;8.962;2023-05-14T14:53:31;19.20;99.90
10472;DHT22;5283;48.876;8.962;2023-05-14T14:55:58;19.20;99.90
10472;DHT22;5283;48.876;8.962;2023-05-14T14:58:28;18.80;99.90
10472;DHT22;5283;48.876;8.962;2023-05-14T15:00:57;18.60;99.90
10472;DHT22;5283;48.876;8.962;2023-05-14T15:03:23;18.50;99.90
10472;DHT22;5283;48.876;8.962;2023-05-14T15:05:50;18.60;99.90
10472;DHT22;5283;48.876;8.962;2023-05-14T15:08:19;18.60;99.90
10472;DHT22;5283;48.876;8.962;2023-05-14T15:10:46;18.50;99.90
10472;DHT22;5283;48.876;8.962;2023-05-14T15:13:13;18.70;99.90
10472;DHT22;5283;48.876;8.962;2023-05-14T15:15:39;18.90;99.90
10472;DHT22;5283;48.876;8.962;2023-05-14T15:18:06;19.00;99.90
10472;DHT22;5283;48.876;8.962;2023-05-14T15:20:33;18.90;99.90
10472;DHT22;5283;48.876;8.962;2023-05-14T15:22:59;18.90;99.90
10472;DHT22;5283;48.876;8.962;2023-05-14T15:25:27;18.70;99.90
10472;DHT22;5283;48.876;8.962;2023-05-14T15:27:54;18.50;99.90
10472;DHT22;5283;48.876;8.962;2023-05-14T15:30:21;18.30;99.90
10472;DHT22;5283;48.876;8.962;2023-05-14T15:32:47;18.10;99.90
10472;DHT22;5283;48.876;8.962;2023-05-14T15:35:14;17.90;99.90
10472;DHT22;5283;48.876;8.962;2023-05-14T15:37:42;17.70;99.90
10472;DHT22;5283;48.876;8.962;2023-05-14T15:40:10;17.60;99.90
10472;DHT22;5283;48.876;8.962;2023-05-14T15:42:38;17.50;99.90
10472;DHT22;5283;48.876;8.962;2023-05-14T15:45:05;17.40;99.90
10472;DHT22;5283;48.876;8.962;2023-05-14T15:47:32;17.20;99.90
10472;DHT22;5283;48.876;8.962;2023-05-14T15:49:59;17.10;99.90
10472;DHT22;5283;48.876;8.962;2023-05-14T15:52:26;17.30;99.90
10472;DHT22;5283;48.876;8.962;2023-05-14T15:54:53;17.30;99.90
10472;DHT22;5283;48.876;8.962;2023-05-14T15:57:21;17.30;99.90
10472;DHT22;5283;48.876;8.962;2023-05-14T15:59:48;17.40;99.90
10472;DHT22;5283;48.876;8.962;2023-05-14T16:02:15;17.50;99.90
10472;DHT22;5283;48.876;8.962;2023-05-14T16:04:41;17.70;99.90
10472;DHT22;5283;48.876;8.962;2023-05-14T16:07:10;17.90;99.90
10472;DHT22;5283;48.876;8.962;2023-05-14T16:09:39;18.00;99.90